createdAt,value
2019-04-27T00:00:43.391Z,96698.91
2019-04-27T00:08:53.639Z,96683.37
2019-04-27T00:13:53.598Z,96688.38
2019-04-27T00:22:12.971Z,96671.51
2019-04-27T00:24:39.887Z,96668.28
2019-04-27T00:29:43.271Z,96668.31
2019-04-27T00:32:10.901Z,96655.87
2019-04-27T00:34:36.745Z,96654.56
2019-04-27T00:37:23.732Z,96652.59
2019-04-27T00:42:56.964Z,96635.56
2019-04-27T00:45:35.749Z,96638.36
2019-04-27T00:48:03.342Z,96638.36
2019-04-27T00:50:29.377Z,96648.98
2019-04-27T00:52:55.213Z,96637.44
2019-04-27T00:55:21.093Z,96639.95
2019-04-27T00:58:06.781Z,96639.06
2019-04-27T01:03:46.807Z,96639.48
2019-04-27T01:06:33.638Z,96644.45
2019-04-27T01:09:00.376Z,96644.45
2019-04-27T01:11:26.229Z,96640.18
2019-04-27T01:13:53.681Z,96641.03
2019-04-27T01:16:39.693Z,96624.33
2019-04-27T01:19:05.524Z,96624.33
2019-04-27T01:21:31.373Z,96642.63
2019-04-27T01:23:58.906Z,96635.58
2019-04-27T01:26:44.855Z,96635.88
2019-04-27T01:32:18.652Z,96628.55
2019-04-27T01:34:45.703Z,96628.55
2019-04-27T01:37:11.534Z,96634.98
2019-04-27T01:39:38.727Z,96637.90
2019-04-27T01:42:25.058Z,96641.66
2019-04-27T01:44:51.218Z,96641.66
2019-04-27T01:47:18.914Z,96639.45
2019-04-27T01:49:46.450Z,96647.47
2019-04-27T01:52:12.290Z,96646.78
2019-04-27T01:54:40.834Z,96647.28
2019-04-27T01:57:06.056Z,96645.29
2019-04-27T01:59:31.893Z,96655.34
2019-04-27T02:05:24.984Z,96644.90
2019-04-27T02:08:10.882Z,96627.08
2019-04-27T02:10:36.725Z,96627.08
2019-04-27T02:13:02.663Z,96640.30
2019-04-27T02:15:29.329Z,96641.27
2019-04-27T02:18:16.230Z,96639.83
2019-04-27T02:20:44.408Z,96639.83
2019-04-27T02:23:09.931Z,96639.47
2019-04-27T02:25:35.786Z,96631.80
2019-04-27T02:28:21.479Z,96636.70
2019-04-27T02:31:09.735Z,96640.16
2019-04-27T02:36:22.356Z,96633.55
2019-04-27T02:38:49.168Z,96629.52
2019-04-27T02:41:35.838Z,96639.00
2019-04-27T02:44:21.806Z,96639.00
2019-04-27T02:46:50.162Z,96643.42
2019-04-27T02:49:15.663Z,96633.23
2019-04-27T02:54:39.960Z,96634.12
2019-04-27T02:57:26.155Z,96628.07
2019-04-27T02:59:51.989Z,96628.07
2019-04-27T03:05:33.267Z,96624.52
2019-04-27T03:07:59.880Z,96624.52
2019-04-27T03:13:34.114Z,96631.02
2019-04-27T03:16:20.510Z,96632.87
2019-04-27T03:19:26.150Z,96623.11
2019-04-27T03:22:11.860Z,96623.11
2019-04-27T03:25:19.907Z,96619.82
2019-04-27T03:31:13.917Z,96627.23
2019-04-27T03:33:42.966Z,96627.23
2019-04-27T03:36:12.498Z,96629.17
2019-04-27T03:38:55.664Z,96619.61
2019-04-27T03:41:21.601Z,96619.61
2019-04-27T03:43:47.521Z,96615.97
2019-04-27T03:46:13.391Z,96622.64
2019-04-27T03:48:40.687Z,96621.77
2019-04-27T03:51:26.844Z,96617.44
2019-04-27T03:54:12.663Z,96625.25
2019-04-27T03:56:59.129Z,96619.44
2019-04-27T04:00:10.105Z,96629.59
2019-04-27T04:02:55.502Z,96632.89
2019-04-27T04:05:41.221Z,96621.69
2019-04-27T04:08:26.961Z,96633.86
2019-04-27T04:11:32.562Z,96633.70
2019-04-27T04:19:51.161Z,96632.82
2019-04-27T04:22:09.971Z,96649.78
2019-04-27T04:24:35.202Z,96647.06
2019-04-27T04:27:01.092Z,96645.86
2019-04-27T04:29:26.918Z,96647.56
2019-04-27T04:31:52.776Z,96642.03
2019-04-27T04:34:19.816Z,96648.83
2019-04-27T04:36:46.390Z,96647.43
2019-04-27T04:39:12.771Z,96647.43
2019-04-27T04:42:19.896Z,96650.13
2019-04-27T04:45:25.501Z,96651.74
2019-04-27T04:48:11.246Z,96651.74
2019-04-27T04:51:20.110Z,96660.28
2019-04-27T04:54:06.374Z,96657.64
2019-04-27T04:56:32.202Z,96657.64
2019-04-27T04:59:00.035Z,96650.81
2019-04-27T05:01:45.688Z,96654.85
2019-04-27T05:04:11.551Z,96654.85
2019-04-27T05:06:59.029Z,96660.20
2019-04-27T05:09:25.029Z,96660.20
2019-04-27T05:11:50.971Z,96667.89
2019-04-27T05:14:16.815Z,96664.63
2019-04-27T05:16:42.655Z,96662.53
2019-04-27T05:19:11.125Z,96664.86
2019-04-27T05:21:56.121Z,96669.75
2019-04-27T05:24:41.841Z,96667.73
2019-04-27T05:27:09.261Z,96667.73
2019-04-27T05:29:35.456Z,96675.59
2019-04-27T05:32:01.292Z,96671.22
2019-04-27T05:34:27.154Z,96678.77
2019-04-27T05:36:53.007Z,96679.08
2019-04-27T05:39:24.661Z,96674.35
2019-04-27T05:41:46.594Z,96675.48
2019-04-27T05:44:32.314Z,96673.86
2019-04-27T05:49:45.647Z,96668.22
2019-04-27T05:52:31.366Z,96668.77
2019-04-27T05:55:39.289Z,96667.98
2019-04-27T05:58:05.200Z,96662.77
2019-04-27T06:00:31.052Z,96663.77
2019-04-27T06:02:56.868Z,96674.77
2019-04-27T06:05:23.093Z,96673.40
2019-04-27T06:08:10.347Z,96666.47
2019-04-27T06:10:36.217Z,96666.47
2019-04-27T06:13:02.149Z,96671.04
2019-04-27T06:15:28.415Z,96674.72
2019-04-27T06:17:55.767Z,96670.68
2019-04-27T06:20:21.586Z,96678.05
2019-04-27T06:22:48.928Z,96672.16
2019-04-27T06:25:35.055Z,96672.00
2019-04-27T06:28:00.908Z,96672.00
2019-04-27T06:30:26.842Z,96669.75
2019-04-27T06:32:52.711Z,96670.31
2019-04-27T06:35:39.957Z,96663.09
2019-04-27T06:38:26.047Z,96671.27
2019-04-27T06:41:11.755Z,96662.57
2019-04-27T06:43:37.632Z,96662.57
2019-04-27T06:46:03.482Z,96669.40
2019-04-27T06:48:29.677Z,96669.53
2019-04-27T06:51:03.626Z,96661.07
2019-04-27T06:53:24.817Z,96666.74
2019-04-27T06:55:50.646Z,96668.61
2019-04-27T06:58:16.490Z,96669.06
2019-04-27T07:00:42.433Z,96657.06
2019-04-27T07:03:10.320Z,96665.52
2019-04-27T07:05:36.045Z,96664.86
2019-04-27T07:08:01.873Z,96664.86
2019-04-27T07:10:28.614Z,96669.13
2019-04-27T07:12:55.477Z,96667.66
2019-04-27T07:15:21.421Z,96668.58
2019-04-27T07:17:48.744Z,96672.71
2019-04-27T07:20:15.118Z,96670.84
2019-04-27T07:22:40.963Z,96674.89
2019-04-27T07:25:06.885Z,96675.77
2019-04-27T07:27:32.741Z,96676.92
2019-04-27T07:30:00.767Z,96676.32
2019-04-27T07:32:26.322Z,96679.80
2019-04-27T07:34:55.173Z,96683.59
2019-04-27T07:37:19.937Z,96681.19
2019-04-27T07:39:45.886Z,96678.52
2019-04-27T07:42:11.718Z,96678.78
2019-04-27T07:44:57.427Z,96681.33
2019-04-27T07:47:39.222Z,96681.56
2019-04-27T07:50:19.426Z,96684.84
2019-04-27T07:52:58.792Z,96672.09
2019-04-27T07:55:39.410Z,96680.64
2019-04-27T07:58:05.390Z,96678.60
2019-04-27T08:00:31.217Z,96678.60
2019-04-27T08:02:58.607Z,96687.67
2019-04-27T08:05:44.689Z,96679.80
2019-04-27T08:08:30.421Z,96680.75
2019-04-27T08:11:16.134Z,96679.59
2019-04-27T08:14:01.870Z,96668.25
2019-04-27T08:16:48.672Z,96672.87
2019-04-27T08:19:15.341Z,96672.87
2019-04-27T08:21:44.430Z,96664.77
2019-04-27T08:24:09.578Z,96667.80
2019-04-27T08:26:56.567Z,96669.67
2019-04-27T08:29:42.318Z,96666.48
2019-04-27T08:32:49.689Z,96666.52
2019-04-27T08:35:15.845Z,96666.52
2019-04-27T08:37:41.676Z,96668.30
2019-04-27T08:40:49.509Z,96660.58
2019-04-27T08:43:15.408Z,96661.23
2019-04-27T08:45:41.249Z,96667.05
2019-04-27T08:48:09.122Z,96662.41
2019-04-27T08:50:37.720Z,96664.00
2019-04-27T08:53:22.466Z,96657.31
2019-04-27T08:56:09.377Z,96660.44
2019-04-27T08:58:35.915Z,96660.44
2019-04-27T09:01:01.774Z,96658.53
2019-04-27T09:03:29.310Z,96658.19
2019-04-27T09:05:55.383Z,96652.73
2019-04-27T09:08:41.454Z,96648.25
2019-04-27T09:11:28.952Z,96647.88
2019-04-27T09:14:14.840Z,96648.70
2019-04-27T09:19:39.333Z,96639.88
2019-04-27T09:24:39.647Z,96647.61
2019-04-27T09:27:26.605Z,96650.04
2019-04-27T09:29:52.431Z,96650.04
2019-04-27T09:32:19.115Z,96646.84
2019-04-27T09:35:07.635Z,96643.17
2019-04-27T09:37:33.732Z,96643.17
2019-04-27T09:39:59.553Z,96633.57
2019-04-27T09:42:26.859Z,96636.76
2019-04-27T09:44:53.159Z,96637.70
2019-04-27T09:47:19.011Z,96633.13
2019-04-27T09:49:46.121Z,96630.52
2019-04-27T09:52:23.675Z,96620.12
2019-04-27T09:55:00.366Z,96620.91
2019-04-27T09:57:26.217Z,96620.92
2019-04-27T09:59:52.064Z,96609.63
2019-04-27T10:02:17.888Z,96608.91
2019-04-27T10:04:43.737Z,96610.28
2019-04-27T10:07:09.564Z,96610.33
2019-04-27T10:09:36.871Z,96597.61
2019-04-27T10:12:46.521Z,96600.21
2019-04-27T10:15:54.199Z,96597.39
2019-04-27T10:18:20.059Z,96598.66
2019-04-27T10:23:18.378Z,96593.50
2019-04-27T10:25:45.771Z,96590.45
2019-04-27T10:28:11.973Z,96591.93
2019-04-27T10:30:37.807Z,96582.97
2019-04-27T10:33:25.718Z,96583.45
2019-04-27T10:35:52.080Z,96581.31
2019-04-27T10:38:18.048Z,96576.77
2019-04-27T10:40:43.969Z,96572.92
2019-04-27T10:43:09.815Z,96574.56
2019-04-27T10:48:29.460Z,96576.40
2019-04-27T10:50:55.327Z,96573.90
2019-04-27T10:53:21.150Z,96570.44
2019-04-27T10:55:47.024Z,96565.81
2019-04-27T11:01:20.323Z,96565.82
2019-04-27T11:04:06.063Z,96567.05
2019-04-27T11:09:47.274Z,96562.78
2019-04-27T11:12:13.226Z,96566.73
2019-04-27T11:14:39.076Z,96557.98
2019-04-27T11:19:38.691Z,96547.05
2019-04-27T11:24:36.556Z,96532.26
2019-04-27T11:27:44.034Z,96522.02
2019-04-27T11:30:51.511Z,96536.59
2019-04-27T11:33:17.366Z,96529.26
2019-04-27T11:38:30.609Z,96521.09
2019-04-27T11:40:56.761Z,96518.46
2019-04-27T11:43:26.042Z,96515.07
2019-04-27T11:45:51.998Z,96508.27
2019-04-27T11:48:17.869Z,96513.97
2019-04-27T11:50:43.713Z,96508.12
2019-04-27T11:53:19.857Z,96509.90
2019-04-27T11:55:37.310Z,96514.06
2019-04-27T11:58:44.810Z,96502.08
2019-04-27T12:01:10.650Z,96494.84
2019-04-27T12:03:36.522Z,96497.38
2019-04-27T12:06:22.247Z,96504.98
2019-04-27T12:08:48.104Z,96504.98
2019-04-27T12:11:13.942Z,96500.92
2019-04-27T12:13:39.792Z,96501.00
2019-04-27T12:16:05.740Z,96495.24
2019-04-27T12:18:31.567Z,96493.14
2019-04-27T12:20:57.445Z,96501.39
2019-04-27T12:23:33.091Z,96494.09
2019-04-27T12:29:06.232Z,96511.64
2019-04-27T12:34:06.346Z,96559.23
2019-04-27T12:36:32.220Z,96559.23
2019-04-27T12:38:58.105Z,96552.48
2019-04-27T12:41:23.993Z,96541.45
2019-04-27T12:43:49.940Z,96554.89
2019-04-27T12:46:16.164Z,96555.25
2019-04-27T12:48:43.681Z,96559.25
2019-04-27T13:01:41.730Z,96534.55
2019-04-27T13:04:07.606Z,96534.55
2019-04-27T13:06:33.529Z,96529.83
2019-04-27T13:08:59.394Z,96520.48
2019-04-27T13:11:26.684Z,96514.37
2019-04-27T13:14:12.878Z,96507.20
2019-04-27T13:16:38.726Z,96508.61
2019-04-27T13:19:06.158Z,96508.61
2019-04-27T13:21:32.426Z,96500.16
2019-04-27T13:24:04.244Z,96502.95
2019-04-27T13:26:26.259Z,96505.48
2019-04-27T13:28:52.083Z,96505.05
2019-04-27T13:31:17.919Z,96504.00
2019-04-27T13:33:43.748Z,96497.98
2019-04-27T13:36:09.586Z,96494.84
2019-04-27T13:38:36.513Z,96489.84
2019-04-27T13:41:30.245Z,96479.93
2019-04-27T13:43:50.937Z,96487.53
2019-04-27T13:46:58.432Z,96479.73
2019-04-27T13:49:46.004Z,96475.20
2019-04-27T13:52:31.803Z,96472.84
2019-04-27T13:54:57.657Z,96470.54
2019-04-27T13:57:23.512Z,96460.27
2019-04-27T13:59:49.363Z,96461.27
2019-04-27T14:02:15.932Z,96466.23
2019-04-27T14:04:42.956Z,96456.29
2019-04-27T14:07:09.155Z,96452.78
2019-04-27T14:09:36.786Z,96455.23
2019-04-27T14:12:44.311Z,96454.66
2019-04-27T14:15:10.325Z,96452.36
2019-04-27T14:17:36.160Z,96454.72
2019-04-27T14:20:45.390Z,96447.66
2019-04-27T14:26:00.251Z,96437.09
2019-04-27T14:28:26.649Z,96433.78
2019-04-27T14:30:52.493Z,96439.66
2019-04-27T14:33:18.655Z,96444.41
2019-04-27T14:35:46.118Z,96452.49
2019-04-27T14:38:13.848Z,96470.38
2019-04-27T14:40:39.717Z,96484.06
2019-04-27T14:43:05.564Z,96487.28
2019-04-27T14:46:13.064Z,96489.86
2019-04-27T14:48:52.192Z,96482.61
2019-04-27T14:51:31.298Z,96482.05
2019-04-27T14:54:10.293Z,96476.73
2019-04-27T14:56:49.342Z,96477.05
2019-04-27T14:59:35.179Z,96477.05
2019-04-27T15:02:20.939Z,96475.32
2019-04-27T15:05:06.687Z,96470.48
2019-04-27T15:07:52.407Z,96477.31
2019-04-27T15:10:38.228Z,96477.31
2019-04-27T15:13:06.516Z,96475.23
2019-04-27T15:15:32.485Z,96476.15
2019-04-27T15:18:04.444Z,96470.75
2019-04-27T15:20:47.549Z,96459.19
2019-04-27T15:23:13.519Z,96459.19
2019-04-27T15:25:45.626Z,96450.38
2019-04-27T15:33:54.908Z,96460.67
2019-04-27T15:39:48.929Z,96460.80
2019-04-27T15:42:41.537Z,96467.57
2019-04-27T15:45:45.127Z,96465.91
2019-04-27T15:48:25.113Z,96466.13
2019-04-27T15:51:14.730Z,96477.66
2019-04-27T15:53:33.115Z,96477.66
2019-04-27T15:56:01.748Z,96476.27
2019-04-27T15:58:28.379Z,96478.03
2019-04-27T16:00:56.443Z,96478.03
2019-04-27T16:03:27.090Z,96479.98
2019-04-27T16:05:50.571Z,96479.98
2019-04-27T16:08:59.062Z,96484.55
2019-04-27T16:11:25.850Z,96479.47
2019-04-27T16:13:51.717Z,96482.33
2019-04-27T16:17:03.002Z,96479.25
2019-04-27T16:19:28.679Z,96478.28
2019-04-27T16:21:55.017Z,96480.79
2019-04-27T16:24:21.303Z,96484.35
2019-04-27T16:26:54.364Z,96473.73
2019-04-27T16:29:36.299Z,96483.66
2019-04-27T16:32:22.505Z,96485.41
2019-04-27T16:40:10.797Z,96469.28
2019-04-27T16:42:38.340Z,96467.39
2019-04-27T16:45:05.227Z,96466.41
2019-04-27T16:47:31.109Z,96467.22
2019-04-27T16:49:58.602Z,96466.78
2019-04-27T16:52:27.446Z,96457.87
2019-04-27T16:57:40.129Z,96452.33
2019-04-27T17:00:49.251Z,96448.44
2019-04-27T17:03:15.132Z,96444.24
2019-04-27T17:05:40.976Z,96436.97
2019-04-27T17:08:14.239Z,96433.98
2019-04-27T17:10:34.656Z,96410.64
2019-04-27T17:13:00.557Z,96410.64
2019-04-27T17:15:53.465Z,96420.78
2019-04-27T17:18:33.947Z,96430.80
2019-04-27T17:21:09.973Z,96428.11
2019-04-27T17:23:31.099Z,96430.61
2019-04-27T17:26:42.335Z,96428.00
2019-04-27T17:29:24.970Z,96419.34
2019-04-27T17:34:25.415Z,96422.09
2019-04-27T17:36:54.890Z,96428.49
2019-04-27T17:39:23.530Z,96431.03
2019-04-27T17:41:52.537Z,96420.06
2019-04-27T17:44:19.186Z,96420.06
2019-04-27T17:46:47.667Z,96431.24
2019-04-27T17:49:11.394Z,96435.61
2019-04-27T17:51:42.957Z,96432.42
2019-04-27T17:54:08.085Z,96435.70
2019-04-27T17:56:36.072Z,96429.20
2019-04-27T17:59:00.846Z,96434.61
2019-04-27T18:01:30.116Z,96445.02
2019-04-27T18:04:37.674Z,96437.03
2019-04-27T18:07:04.176Z,96438.23
2019-04-27T18:09:33.455Z,96447.54
2019-04-27T18:11:58.422Z,96459.98
2019-04-27T18:14:25.607Z,96533.44
2019-04-27T18:16:51.556Z,96552.66
2019-04-27T18:19:40.312Z,96576.14
2019-04-27T18:22:26.036Z,96591.15
2019-04-27T18:25:11.810Z,96591.15
2019-04-27T18:27:58.306Z,96588.70
2019-04-27T18:30:44.213Z,96586.11
2019-04-27T18:33:32.721Z,96597.36
2019-04-27T18:36:05.016Z,96597.36
2019-04-27T18:38:45.363Z,96599.36
2019-04-27T18:41:11.885Z,96599.36
2019-04-27T18:43:45.883Z,96597.08
2019-04-27T18:46:28.324Z,96600.97
2019-04-27T18:49:10.337Z,96610.35
2019-04-27T18:51:58.121Z,96610.35
2019-04-27T18:54:24.155Z,96636.27
2019-04-27T18:57:01.691Z,96636.27
2019-04-27T18:59:18.690Z,96636.87
2019-04-27T19:01:45.670Z,96637.73
2019-04-27T19:04:11.552Z,96639.05
2019-04-27T19:06:39.143Z,96634.09
2019-04-27T19:09:05.193Z,96637.52
2019-04-27T19:11:31.037Z,96649.95
2019-04-27T19:13:56.902Z,96630.15
2019-04-27T19:16:22.838Z,96622.92
2019-04-27T19:18:48.731Z,96586.34
2019-04-27T19:21:14.611Z,96556.69
2019-04-27T19:23:40.515Z,96574.28
2019-04-27T19:26:26.227Z,96562.61
2019-04-27T19:34:03.538Z,96574.48
2019-04-27T19:36:30.439Z,96580.52
2019-04-27T19:39:18.070Z,96597.22
2019-04-27T19:41:56.698Z,96597.22
2019-04-27T19:44:12.591Z,96610.05
2019-04-27T19:46:40.226Z,96598.30
2019-04-27T19:49:19.900Z,96613.97
2019-04-27T19:51:59.014Z,96625.88
2019-04-27T19:54:24.901Z,96625.88
2019-04-27T19:56:50.749Z,96637.86
2019-04-27T19:59:38.063Z,96634.38
2019-04-27T20:07:15.908Z,96649.55
2019-04-27T20:10:01.737Z,96637.66
2019-04-27T20:12:27.677Z,96644.62
2019-04-27T20:15:13.499Z,96647.37
2019-04-27T20:17:40.910Z,96647.92
2019-04-27T20:20:07.228Z,96647.92
2019-04-27T20:22:33.062Z,96656.53
2019-04-27T20:24:58.916Z,96667.10
2019-04-27T20:27:24.873Z,96666.52
2019-04-27T20:29:50.859Z,96664.72
2019-04-27T20:32:16.701Z,96669.39
2019-04-27T20:34:42.568Z,96672.77
2019-04-27T20:37:08.413Z,96682.05
2019-04-27T20:39:34.363Z,96671.41
2019-04-27T20:42:00.595Z,96686.52
2019-04-27T20:44:26.612Z,96686.77
2019-04-27T20:46:53.017Z,96684.32
2019-04-27T20:52:46.022Z,96661.19
2019-04-27T20:55:32.327Z,96675.53
2019-04-27T20:58:02.278Z,96675.53
2019-04-27T21:00:26.157Z,96675.95
2019-04-27T21:03:12.060Z,96686.81
2019-04-27T21:05:57.822Z,96680.59
2019-04-27T21:08:44.261Z,96690.08
2019-04-27T21:11:11.795Z,96690.08
2019-04-27T21:13:57.764Z,96694.27
2019-04-27T21:16:23.612Z,96694.27
2019-04-27T21:18:49.452Z,96688.25
2019-04-27T21:21:15.336Z,96697.96
2019-04-27T21:23:41.540Z,96696.14
2019-04-27T21:26:08.968Z,96699.70
2019-04-27T21:28:34.792Z,96695.71
2019-04-27T21:31:00.643Z,96699.58
2019-04-27T21:33:26.474Z,96702.34
2019-04-27T21:35:52.346Z,96699.47
2019-04-27T21:38:18.206Z,96707.30
2019-04-27T21:40:44.064Z,96702.29
2019-04-27T21:46:37.136Z,96698.05
2019-04-27T21:49:02.995Z,96698.05
2019-04-27T21:57:04.145Z,96705.56
2019-04-27T21:59:29.990Z,96710.70
2019-04-27T22:04:31.378Z,96701.45
2019-04-27T22:06:57.253Z,96706.09
2019-04-27T22:09:23.093Z,96705.64
2019-04-27T22:11:48.937Z,96710.16
2019-04-27T22:14:14.886Z,96710.76
2019-04-27T22:16:41.688Z,96706.33
2019-04-27T22:19:28.480Z,96716.50
2019-04-27T22:21:54.322Z,96716.50
2019-04-27T22:24:42.782Z,96722.59
2019-04-27T22:27:07.902Z,96727.80
2019-04-27T22:29:33.761Z,96734.41
2019-04-27T22:32:01.553Z,96730.52
2019-04-27T22:34:27.389Z,96725.22
2019-04-27T22:36:53.244Z,96725.22
2019-04-27T22:39:39.093Z,96720.39
2019-04-27T22:42:24.808Z,96726.72
2019-04-27T22:47:24.020Z,96713.21
2019-04-27T22:49:49.862Z,96727.34
2019-04-27T22:52:15.718Z,96729.55
2019-04-27T22:54:42.144Z,96733.84
2019-04-27T23:00:24.917Z,96736.80
2019-04-27T23:05:24.306Z,96731.45
2019-04-27T23:07:51.740Z,96731.16
2019-04-27T23:13:03.482Z,96730.09
2019-04-27T23:18:58.339Z,96740.41
2019-04-27T23:21:24.191Z,96737.70
2019-04-27T23:23:51.721Z,96740.66
2019-04-27T23:26:37.659Z,96745.73
2019-04-27T23:29:23.415Z,96742.38
2019-04-27T23:32:09.145Z,96742.38
2019-04-27T23:34:55.000Z,96756.23
2019-04-27T23:37:20.983Z,96756.23
2019-04-27T23:39:46.961Z,96761.20
2019-04-27T23:42:12.817Z,96757.50
2019-04-27T23:44:38.677Z,96758.80
2019-04-27T23:47:04.660Z,96760.13
2019-04-27T23:49:32.316Z,96761.53
2019-04-27T23:55:05.547Z,96764.69
2019-04-27T23:57:31.714Z,96764.69
2019-04-27T23:59:59.173Z,96764.25
